createdAt,value
2018-10-17T00:00:16.854Z,12.73
2018-10-17T00:01:16.802Z,12.78
2018-10-17T00:02:16.591Z,12.68
2018-10-17T00:03:16.585Z,12.76
2018-10-17T00:04:16.823Z,12.7
2018-10-17T00:05:16.800Z,12.68
2018-10-17T00:06:16.809Z,12.68
2018-10-17T00:07:16.951Z,12.72
2018-10-17T00:08:16.556Z,12.73
2018-10-17T00:09:16.290Z,12.68
2018-10-17T00:10:16.808Z,12.67
2018-10-17T00:11:17.016Z,12.75
2018-10-17T00:12:16.797Z,12.68
2018-10-17T00:13:16.714Z,12.76
2018-10-17T00:14:16.804Z,12.73
2018-10-17T00:15:16.547Z,12.76
2018-10-17T00:16:16.533Z,12.76
2018-10-17T00:17:16.618Z,12.76
2018-10-17T00:18:16.532Z,12.79
2018-10-17T00:19:17.114Z,12.83
2018-10-17T00:20:16.767Z,12.85
2018-10-17T00:21:16.509Z,12.8
2018-10-17T00:22:16.249Z,12.98
2018-10-17T00:23:16.699Z,12.94
2018-10-17T00:24:16.783Z,13.01
2018-10-17T00:25:16.328Z,13
2018-10-17T00:26:16.768Z,13
2018-10-17T00:27:16.491Z,13
2018-10-17T00:28:16.504Z,13.13
2018-10-17T00:29:17.200Z,13.01
2018-10-17T00:30:16.482Z,13.01
2018-10-17T00:31:17.045Z,13.01
2018-10-17T00:32:16.476Z,13.03
2018-10-17T00:33:16.987Z,13.01
2018-10-17T00:34:16.723Z,13.01
2018-10-17T00:35:17.198Z,12.94
2018-10-17T00:36:16.468Z,12.9
2018-10-17T00:37:16.749Z,12.87
2018-10-17T00:38:16.461Z,12.86
2018-10-17T00:39:16.726Z,12.85
2018-10-17T00:40:16.795Z,12.95
2018-10-17T00:41:17.250Z,12.83
2018-10-17T00:42:16.188Z,12.85
2018-10-17T00:43:16.709Z,12.93
2018-10-17T00:44:16.713Z,12.87
2018-10-17T00:45:16.184Z,12.98
2018-10-17T00:46:16.190Z,12.79
2018-10-17T00:47:16.638Z,12.9
2018-10-17T00:48:16.677Z,12.93
2018-10-17T00:49:16.633Z,12.87
2018-10-17T00:50:16.688Z,12.97
2018-10-17T00:51:16.427Z,12.87
2018-10-17T00:52:16.681Z,12.87
2018-10-17T00:53:16.761Z,12.87
2018-10-17T00:54:16.420Z,12.83
2018-10-17T00:55:17.151Z,12.79
2018-10-17T00:56:16.668Z,12.73
2018-10-17T00:57:16.653Z,12.78
2018-10-17T00:58:16.656Z,12.8
2018-10-17T00:59:16.993Z,12.78
2018-10-17T01:00:16.651Z,12.73
2018-10-17T01:01:17.051Z,12.75
2018-10-17T01:02:16.645Z,12.68
2018-10-17T01:03:20.431Z,12.67
2018-10-17T01:04:16.399Z,12.75
2018-10-17T01:05:16.702Z,12.68
2018-10-17T01:06:16.395Z,12.7
2018-10-17T01:07:16.579Z,12.72
2018-10-17T01:08:16.115Z,12.7
2018-10-17T01:09:16.348Z,12.61
2018-10-17T01:10:16.625Z,12.58
2018-10-17T01:11:16.460Z,12.58
2018-10-17T01:12:16.356Z,12.55
2018-10-17T01:13:16.813Z,12.49
2018-10-17T01:14:16.351Z,12.6
2018-10-17T01:15:16.337Z,12.53
2018-10-17T01:16:16.408Z,12.5
2018-10-17T01:17:17.033Z,12.53
2018-10-17T01:18:16.328Z,12.47
2018-10-17T01:19:16.500Z,12.46
2018-10-17T01:20:16.575Z,12.45
2018-10-17T01:21:16.089Z,12.43
2018-10-17T01:22:16.310Z,12.42
2018-10-17T01:23:16.899Z,12.5
2018-10-17T01:24:16.557Z,12.5
2018-10-17T01:25:16.462Z,12.46
2018-10-17T01:26:16.292Z,12.37
2018-10-17T01:27:16.605Z,12.45
2018-10-17T01:28:16.556Z,12.47
2018-10-17T01:29:16.575Z,12.47
2018-10-17T01:30:16.532Z,12.54
2018-10-17T01:31:16.971Z,12.46
2018-10-17T01:32:16.540Z,12.47
2018-10-17T01:33:16.529Z,12.5
2018-10-17T01:34:19.194Z,12.46
2018-10-17T01:35:16.890Z,12.47
2018-10-17T01:36:16.312Z,12.47
2018-10-17T01:37:16.068Z,12.42
2018-10-17T01:38:16.261Z,12.39
2018-10-17T01:39:16.517Z,12.37
2018-10-17T01:40:16.543Z,12.4
2018-10-17T01:41:16.148Z,12.36
2018-10-17T01:42:16.500Z,12.43
2018-10-17T01:43:16.545Z,12.4
2018-10-17T01:44:16.506Z,12.32
2018-10-17T01:45:16.501Z,12.22
2018-10-17T01:46:16.499Z,12.36
2018-10-17T01:47:16.915Z,12.4
2018-10-17T01:48:16.482Z,12.39
2018-10-17T01:49:16.304Z,12.25
2018-10-17T01:50:16.233Z,12.37
2018-10-17T01:51:16.211Z,12.28
2018-10-17T01:52:16.198Z,12.31
2018-10-17T01:53:16.789Z,12.27
2018-10-17T01:54:16.474Z,12.35
2018-10-17T01:55:16.290Z,12.24
2018-10-17T01:56:16.185Z,12.21
2018-10-17T01:57:16.180Z,12.15
2018-10-17T01:58:16.439Z,12.04
2018-10-17T01:59:16.637Z,12.06
2018-10-17T02:00:16.183Z,12.06
2018-10-17T02:01:16.367Z,12.1
2018-10-17T02:02:16.418Z,12.04
2018-10-17T02:03:16.426Z,11.97
2018-10-17T02:04:16.653Z,11.94
2018-10-17T02:05:16.384Z,11.9
2018-10-17T02:06:16.405Z,11.81
2018-10-17T02:07:16.920Z,11.81
2018-10-17T02:08:16.131Z,11.83
2018-10-17T02:09:16.392Z,11.84
2018-10-17T02:10:16.141Z,11.78
2018-10-17T02:11:16.349Z,11.72
2018-10-17T02:12:16.118Z,11.66
2018-10-17T02:13:16.662Z,11.55
2018-10-17T02:14:16.367Z,11.51
2018-10-17T02:15:16.354Z,11.52
2018-10-17T02:16:15.836Z,11.52
2018-10-17T02:17:15.877Z,11.51
2018-10-17T02:18:16.093Z,11.55
2018-10-17T02:19:16.747Z,11.54
2018-10-17T02:20:16.341Z,11.51
2018-10-17T02:21:16.082Z,11.57
2018-10-17T02:22:15.815Z,11.54
2018-10-17T02:23:16.659Z,11.52
2018-10-17T02:24:16.325Z,11.51
2018-10-17T02:25:16.233Z,11.52
2018-10-17T02:26:16.042Z,11.5
2018-10-17T02:27:16.294Z,11.48
2018-10-17T02:28:16.303Z,11.43
2018-10-17T02:29:16.147Z,11.41
2018-10-17T02:30:15.782Z,11.41
2018-10-17T02:31:16.299Z,11.47
2018-10-17T02:32:16.286Z,11.4
2018-10-17T02:33:16.271Z,11.33
2018-10-17T02:34:16.019Z,11.35
2018-10-17T02:35:16.660Z,11.37
2018-10-17T02:36:16.027Z,11.37
2018-10-17T02:37:16.679Z,11.36
2018-10-17T02:38:16.244Z,11.35
2018-10-17T02:39:16.340Z,11.4
2018-10-17T02:40:16.231Z,11.33
2018-10-17T02:41:16.750Z,11.37
2018-10-17T02:42:15.984Z,11.37
2018-10-17T02:43:16.587Z,11.32
2018-10-17T02:44:15.965Z,11.37
2018-10-17T02:45:15.692Z,11.37
2018-10-17T02:46:16.202Z,11.36
2018-10-17T02:47:16.531Z,11.48
2018-10-17T02:48:15.938Z,11.37
2018-10-17T02:49:16.182Z,11.48
2018-10-17T02:50:15.941Z,11.37
2018-10-17T02:51:15.939Z,11.4
2018-10-17T02:52:15.944Z,11.4
2018-10-17T02:53:16.572Z,11.55
2018-10-17T02:54:16.166Z,11.44
2018-10-17T02:55:16.174Z,11.52
2018-10-17T02:56:15.940Z,11.52
2018-10-17T02:57:15.894Z,11.54
2018-10-17T02:58:15.914Z,11.57
2018-10-17T02:59:16.539Z,11.54
2018-10-17T03:00:15.913Z,11.54
2018-10-17T03:01:16.154Z,11.47
2018-10-17T03:02:16.141Z,11.54
2018-10-17T03:03:16.135Z,11.59
2018-10-17T03:04:15.868Z,11.57
2018-10-17T03:05:16.442Z,11.52
2018-10-17T03:06:15.868Z,11.57
2018-10-17T03:07:16.519Z,11.55
2018-10-17T03:08:15.592Z,11.51
2018-10-17T03:09:15.849Z,11.55
2018-10-17T03:10:16.101Z,11.48
2018-10-17T03:11:16.155Z,11.45
2018-10-17T03:12:15.851Z,11.51
2018-10-17T03:13:16.439Z,11.54
2018-10-17T03:14:15.557Z,11.57
2018-10-17T03:15:15.824Z,11.57
2018-10-17T03:16:16.104Z,11.52
2018-10-17T03:17:16.554Z,11.51
2018-10-17T03:18:16.056Z,11.55
2018-10-17T03:19:16.536Z,11.59
2018-10-17T03:20:15.614Z,11.54
2018-10-17T03:21:16.045Z,11.52
2018-10-17T03:22:16.046Z,11.59
2018-10-17T03:23:16.351Z,11.47
2018-10-17T03:24:16.051Z,11.5
2018-10-17T03:25:16.068Z,11.51
2018-10-17T03:26:15.768Z,11.45
2018-10-17T03:27:16.035Z,11.44
2018-10-17T03:28:16.258Z,11.43
2018-10-17T03:29:16.359Z,11.4
2018-10-17T03:30:16.013Z,11.41
2018-10-17T03:31:16.552Z,11.41
2018-10-17T03:32:15.752Z,11.47
2018-10-17T03:33:16.010Z,11.41
2018-10-17T03:34:16.010Z,11.41
2018-10-17T03:35:16.013Z,11.43
2018-10-17T03:36:16.016Z,11.41
2018-10-17T03:37:16.385Z,11.43
2018-10-17T03:38:15.981Z,11.36
2018-10-17T03:39:15.725Z,11.32
2018-10-17T03:40:15.986Z,11.3
2018-10-17T03:41:16.377Z,11.26
2018-10-17T03:42:15.970Z,11.23
2018-10-17T03:43:16.095Z,11.23
2018-10-17T03:44:15.710Z,11.12
2018-10-17T03:45:15.718Z,11.18
2018-10-17T03:46:15.695Z,11.14
2018-10-17T03:47:16.474Z,11.23
2018-10-17T03:48:15.707Z,11.19
2018-10-17T03:49:16.442Z,11.17
2018-10-17T03:50:15.674Z,11.07
2018-10-17T03:51:15.664Z,11.04
2018-10-17T03:52:15.682Z,11.04
2018-10-17T03:53:16.424Z,11
2018-10-17T03:54:15.672Z,11.04
2018-10-17T03:55:16.467Z,10.99
2018-10-17T03:56:15.916Z,10.96
2018-10-17T03:57:15.641Z,10.96
2018-10-17T03:58:15.380Z,11.04
2018-10-17T03:59:16.400Z,10.94
2018-10-17T04:00:15.881Z,11
2018-10-17T04:01:15.921Z,11.02
2018-10-17T04:02:15.614Z,11.05
2018-10-17T04:03:16.343Z,10.97
2018-10-17T04:04:15.615Z,11.05
2018-10-17T04:05:16.255Z,11
2018-10-17T04:06:15.881Z,10.99
2018-10-17T04:07:16.227Z,10.89
2018-10-17T04:08:15.622Z,10.9
2018-10-17T04:09:15.324Z,10.96
2018-10-17T04:10:15.582Z,10.94
2018-10-17T04:11:15.789Z,11.02
2018-10-17T04:12:15.819Z,11.05
2018-10-17T04:13:15.820Z,11.05
2018-10-17T04:14:15.295Z,10.99
2018-10-17T04:15:15.826Z,10.9
2018-10-17T04:16:15.555Z,10.9
2018-10-17T04:17:16.252Z,10.92
2018-10-17T04:18:15.552Z,10.87
2018-10-17T04:19:15.733Z,10.96
2018-10-17T04:20:15.544Z,10.94
2018-10-17T04:21:15.572Z,10.92
2018-10-17T04:22:15.258Z,10.96
2018-10-17T04:23:16.197Z,10.92
2018-10-17T04:24:15.545Z,10.89
2018-10-17T04:25:16.286Z,10.96
2018-10-17T04:26:15.501Z,10.96
2018-10-17T04:27:15.766Z,10.92
2018-10-17T04:28:15.490Z,10.84
2018-10-17T04:29:16.192Z,10.82
2018-10-17T04:30:15.737Z,10.87
2018-10-17T04:31:15.729Z,10.96
2018-10-17T04:32:15.214Z,10.84
2018-10-17T04:33:15.743Z,10.78
2018-10-17T04:34:15.726Z,10.79
2018-10-17T04:35:16.177Z,10.81
2018-10-17T04:36:16.083Z,10.78
2018-10-17T04:37:16.049Z,10.81
2018-10-17T04:38:15.449Z,10.82
2018-10-17T04:39:15.456Z,10.79
2018-10-17T04:40:15.457Z,10.76
2018-10-17T04:41:16.092Z,10.75
2018-10-17T04:42:15.440Z,10.82
2018-10-17T04:43:16.042Z,10.75
2018-10-17T04:44:15.681Z,10.78
2018-10-17T04:45:15.426Z,10.76
2018-10-17T04:46:15.418Z,10.79
2018-10-17T04:47:16.132Z,10.87
2018-10-17T04:48:15.427Z,10.86
2018-10-17T04:49:16.117Z,10.82
2018-10-17T04:50:15.725Z,10.86
2018-10-17T04:51:15.652Z,10.76
2018-10-17T04:52:15.393Z,10.86
2018-10-17T04:53:16.083Z,10.76
2018-10-17T04:54:15.378Z,10.81
2018-10-17T04:55:16.025Z,10.81
2018-10-17T04:56:15.375Z,10.71
2018-10-17T04:57:15.674Z,10.81
2018-10-17T04:58:15.690Z,10.72
2018-10-17T04:59:16.019Z,10.75
2018-10-17T05:00:15.618Z,10.72
2018-10-17T05:01:15.584Z,10.71
2018-10-17T05:02:15.594Z,10.71
2018-10-17T05:03:15.347Z,10.72
2018-10-17T05:04:15.326Z,10.74
2018-10-17T05:05:16.026Z,10.68
2018-10-17T05:06:15.587Z,10.74
2018-10-17T05:07:15.866Z,10.74
2018-10-17T05:08:15.573Z,10.74
2018-10-17T05:09:15.588Z,10.75
2018-10-17T05:10:15.358Z,10.78
2018-10-17T05:11:15.974Z,10.76
2018-10-17T05:12:15.584Z,10.76
2018-10-17T05:13:15.470Z,10.78
2018-10-17T05:14:15.548Z,10.72
2018-10-17T05:15:15.819Z,10.79
2018-10-17T05:16:15.020Z,10.84
2018-10-17T05:17:15.569Z,10.82
2018-10-17T05:18:15.529Z,10.75
2018-10-17T05:19:15.903Z,10.71
2018-10-17T05:20:15.763Z,10.74
2018-10-17T05:21:15.289Z,10.71
2018-10-17T05:22:15.505Z,10.76
2018-10-17T05:23:15.621Z,10.74
2018-10-17T05:24:15.249Z,10.69
2018-10-17T05:25:15.924Z,10.72
2018-10-17T05:26:15.490Z,10.69
2018-10-17T05:27:15.307Z,10.63
2018-10-17T05:28:15.480Z,10.61
2018-10-17T05:29:15.948Z,10.72
2018-10-17T05:30:15.524Z,10.74
2018-10-17T05:31:15.432Z,10.74
2018-10-17T05:32:15.451Z,10.63
2018-10-17T05:33:15.197Z,10.71
2018-10-17T05:34:15.200Z,10.61
2018-10-17T05:35:15.553Z,10.61
2018-10-17T05:36:15.447Z,10.64
2018-10-17T05:37:15.636Z,10.63
2018-10-17T05:38:15.303Z,10.63
2018-10-17T05:39:15.164Z,10.63
2018-10-17T05:40:14.912Z,10.61
2018-10-17T05:41:15.719Z,10.61
2018-10-17T05:42:15.139Z,10.61
2018-10-17T05:43:15.885Z,10.68
2018-10-17T05:44:15.482Z,10.57
2018-10-17T05:45:14.872Z,10.54
2018-10-17T05:46:15.136Z,10.6
2018-10-17T05:47:15.901Z,10.61
2018-10-17T05:48:15.118Z,10.67
2018-10-17T05:49:15.857Z,10.64
2018-10-17T05:50:15.380Z,10.57
2018-10-17T05:51:14.853Z,10.74
2018-10-17T05:52:15.105Z,10.76
2018-10-17T05:53:15.641Z,10.75
2018-10-17T05:54:15.095Z,10.75
2018-10-17T05:55:15.797Z,10.87
2018-10-17T05:56:15.104Z,10.9
2018-10-17T05:57:15.349Z,10.84
2018-10-17T05:58:15.331Z,10.82
2018-10-17T05:59:15.233Z,10.81
2018-10-17T06:00:15.107Z,10.86
2018-10-17T06:01:15.795Z,10.93
2018-10-17T06:02:15.332Z,10.9
2018-10-17T06:03:15.043Z,10.94
2018-10-17T06:04:15.043Z,11
2018-10-17T06:05:15.636Z,10.94
2018-10-17T06:06:15.037Z,10.92
2018-10-17T06:07:15.617Z,11.02
2018-10-17T06:08:15.020Z,10.94
2018-10-17T06:09:15.013Z,10.94
2018-10-17T06:10:15.426Z,10.97
2018-10-17T06:11:15.728Z,10.92
2018-10-17T06:12:15.025Z,10.92
2018-10-17T06:13:15.550Z,10.86
2018-10-17T06:14:14.993Z,10.82
2018-10-17T06:15:15.248Z,10.94
2018-10-17T06:16:14.992Z,10.94
2018-10-17T06:17:15.460Z,10.94
2018-10-17T06:18:14.999Z,10.96
2018-10-17T06:19:15.668Z,10.94
2018-10-17T06:20:14.978Z,10.93
2018-10-17T06:21:14.957Z,10.92
2018-10-17T06:22:15.215Z,10.93
2018-10-17T06:23:15.291Z,10.82
2018-10-17T06:24:15.198Z,10.9
2018-10-17T06:25:15.614Z,10.94
2018-10-17T06:26:15.209Z,10.82
2018-10-17T06:27:15.190Z,10.82
2018-10-17T06:28:14.723Z,10.87
2018-10-17T06:29:15.609Z,10.79
2018-10-17T06:30:14.917Z,10.79
2018-10-17T06:31:15.640Z,10.79
2018-10-17T06:32:14.912Z,10.84
2018-10-17T06:33:14.906Z,10.82
2018-10-17T06:34:15.731Z,10.89
2018-10-17T06:35:15.375Z,10.79
2018-10-17T06:36:14.907Z,10.89
2018-10-17T06:37:15.072Z,10.82
2018-10-17T06:38:14.648Z,10.86
2018-10-17T06:39:15.150Z,10.86
2018-10-17T06:40:14.879Z,10.84
2018-10-17T06:41:15.531Z,10.96
2018-10-17T06:42:14.853Z,11
2018-10-17T06:43:15.154Z,10.94
2018-10-17T06:44:15.044Z,11.04
2018-10-17T06:45:14.836Z,11.25
2018-10-17T06:46:15.091Z,11.26
2018-10-17T06:47:15.499Z,11.29
2018-10-17T06:48:15.083Z,11.33
2018-10-17T06:49:15.059Z,11.37
2018-10-17T06:50:15.068Z,11.36
2018-10-17T06:51:15.436Z,11.36
2018-10-17T06:52:15.077Z,11.47
2018-10-17T06:53:14.639Z,11.36
2018-10-17T06:54:14.934Z,11.36
2018-10-17T06:55:15.024Z,11.41
2018-10-17T06:56:15.041Z,11.44
2018-10-17T06:57:15.054Z,11.52
2018-10-17T06:58:14.790Z,11.51
2018-10-17T06:59:15.084Z,11.51
2018-10-17T07:00:14.781Z,11.59
2018-10-17T07:01:15.023Z,11.57
2018-10-17T07:02:14.828Z,11.72
2018-10-17T07:03:14.751Z,11.8
2018-10-17T07:04:15.022Z,11.83
2018-10-17T07:05:15.162Z,12.06
2018-10-17T07:06:15.000Z,12.31
2018-10-17T07:07:15.493Z,12.86
2018-10-17T07:08:15.016Z,13.41
2018-10-17T07:09:15.011Z,13.96
2018-10-17T07:10:14.755Z,14.37
2018-10-17T07:11:15.070Z,14.79
2018-10-17T07:12:14.974Z,15.04
2018-10-17T07:13:15.294Z,15.47
2018-10-17T07:14:14.970Z,15.79
2018-10-17T07:15:15.114Z,16.1
2018-10-17T07:16:14.738Z,16.28
2018-10-17T07:17:15.291Z,16.5
2018-10-17T07:18:14.966Z,16.65
2018-10-17T07:19:15.466Z,16.79
2018-10-17T07:20:14.985Z,16.99
2018-10-17T07:21:14.712Z,17.2
2018-10-17T07:22:14.968Z,17.31
2018-10-17T07:23:14.977Z,17.34
2018-10-17T07:24:14.720Z,17.36
2018-10-17T07:25:15.271Z,17.46
2018-10-17T07:26:14.727Z,17.6
2018-10-17T07:27:14.748Z,17.72
2018-10-17T07:28:14.735Z,17.74
2018-10-17T07:29:15.228Z,18.04
2018-10-17T07:30:15.027Z,18.05
2018-10-17T07:31:16.404Z,18.05
2018-10-17T07:32:14.983Z,18.25
2018-10-17T07:33:14.730Z,18.29
2018-10-17T07:34:14.981Z,18.34
2018-10-17T07:35:15.061Z,18.31
2018-10-17T07:36:15.040Z,18.37
2018-10-17T07:37:14.739Z,18.41
2018-10-17T07:38:14.992Z,18.58
2018-10-17T07:39:14.997Z,18.68
2018-10-17T07:40:14.865Z,18.66
2018-10-17T07:41:14.733Z,18.68
2018-10-17T07:42:15.432Z,18.62
2018-10-17T07:43:15.004Z,18.66
2018-10-17T07:44:14.749Z,18.71
2018-10-17T07:45:14.880Z,18.84
2018-10-17T07:46:14.761Z,19.09
2018-10-17T07:47:15.031Z,19.14
2018-10-17T07:48:15.379Z,19.09
2018-10-17T07:49:14.754Z,18.96
2018-10-17T07:50:14.900Z,18.89
2018-10-17T07:51:15.012Z,18.95
2018-10-17T07:52:14.505Z,19.02
2018-10-17T07:53:14.962Z,19.11
2018-10-17T07:54:15.459Z,19.14
2018-10-17T07:55:15.048Z,19.22
2018-10-17T07:56:15.024Z,19.22
2018-10-17T07:57:15.069Z,19.15
2018-10-17T07:58:14.543Z,19.12
2018-10-17T07:59:14.772Z,19.14
2018-10-17T08:00:15.463Z,19.14
2018-10-17T08:01:15.046Z,19.07
2018-10-17T08:02:14.769Z,19.12
2018-10-17T08:03:14.806Z,18.95
2018-10-17T08:04:14.791Z,19.08
2018-10-17T08:05:14.909Z,18.95
2018-10-17T08:06:15.005Z,18.78
2018-10-17T08:07:14.803Z,18.65
2018-10-17T08:08:15.069Z,18.13
2018-10-17T08:09:14.877Z,17.76
2018-10-17T08:10:15.211Z,17.31
2018-10-17T08:11:14.561Z,16.87
2018-10-17T08:12:15.394Z,16.58
2018-10-17T08:13:14.581Z,16.32
2018-10-17T08:14:15.625Z,15.98
2018-10-17T08:15:14.967Z,15.77
2018-10-17T08:16:14.814Z,15.65
2018-10-17T08:17:15.068Z,15.47
2018-10-17T08:18:14.803Z,15.43
2018-10-17T08:19:14.832Z,15.36
2018-10-17T08:20:14.705Z,15.22
2018-10-17T08:21:15.196Z,15.19
2018-10-17T08:22:15.127Z,14.97
2018-10-17T08:23:14.824Z,14.99
2018-10-17T08:24:15.566Z,15
2018-10-17T08:25:15.193Z,14.94
2018-10-17T08:26:15.090Z,14.92
2018-10-17T08:27:15.124Z,14.86
2018-10-17T08:28:14.584Z,14.96
2018-10-17T08:29:15.081Z,14.97
2018-10-17T08:30:15.078Z,14.96
2018-10-17T08:31:15.078Z,15.02
2018-10-17T08:32:15.079Z,14.92
2018-10-17T08:33:15.076Z,15.06
2018-10-17T08:34:15.070Z,14.99
2018-10-17T08:35:15.255Z,15.07
2018-10-17T08:36:15.881Z,15.18
2018-10-17T08:37:15.085Z,15.22
2018-10-17T08:38:14.821Z,15.27
2018-10-17T08:39:15.068Z,15.29
2018-10-17T08:40:14.840Z,15.28
2018-10-17T08:41:15.598Z,15.35
2018-10-17T08:42:15.067Z,15.39
2018-10-17T08:43:14.811Z,15.39
2018-10-17T08:44:15.592Z,15.39
2018-10-17T08:45:15.343Z,15.44
2018-10-17T08:46:15.071Z,15.44
2018-10-17T08:47:15.062Z,15.55
2018-10-17T08:48:15.081Z,15.49
2018-10-17T08:49:14.802Z,15.62
2018-10-17T08:50:15.380Z,15.65
2018-10-17T08:51:14.933Z,15.64
2018-10-17T08:52:15.069Z,15.72
2018-10-17T08:53:15.052Z,15.64
2018-10-17T08:54:14.814Z,15.72
2018-10-17T08:55:15.056Z,15.75
2018-10-17T08:56:14.964Z,15.83
2018-10-17T08:57:15.054Z,15.84
2018-10-17T08:58:14.803Z,15.88
2018-10-17T08:59:15.061Z,16.05
2018-10-17T09:00:15.254Z,16.04
2018-10-17T09:01:14.802Z,16.08
2018-10-17T09:02:15.392Z,16.17
2018-10-17T09:03:15.048Z,16.31
2018-10-17T09:04:14.545Z,16.33
2018-10-17T09:05:15.106Z,16.33
2018-10-17T09:06:15.457Z,16.38
2018-10-17T09:07:14.806Z,16.47
2018-10-17T09:08:15.226Z,16.51
2018-10-17T09:09:14.834Z,16.65
2018-10-17T09:10:14.791Z,16.64
2018-10-17T09:11:15.047Z,16.74
2018-10-17T09:12:15.484Z,16.83
2018-10-17T09:13:15.149Z,16.78
2018-10-17T09:14:15.396Z,16.83
2018-10-17T09:15:15.238Z,16.87
2018-10-17T09:16:15.541Z,16.9
2018-10-17T09:17:14.802Z,16.99
2018-10-17T09:18:15.508Z,16.93
2018-10-17T09:19:15.242Z,16.93
2018-10-17T09:20:16.704Z,16.93
2018-10-17T09:21:16.333Z,16.99
2018-10-17T09:22:16.820Z,17.01
2018-10-17T09:23:14.525Z,17.09
2018-10-17T09:24:15.492Z,17.08
2018-10-17T09:25:15.033Z,17.15
2018-10-17T09:26:14.526Z,17.2
2018-10-17T09:27:14.780Z,17.19
2018-10-17T09:28:15.001Z,17.26
2018-10-17T09:29:14.794Z,17.3
2018-10-17T09:30:15.383Z,17.31
2018-10-17T09:31:14.790Z,17.36
2018-10-17T09:32:15.583Z,17.38
2018-10-17T09:33:15.027Z,17.46
2018-10-17T09:34:15.012Z,17.49
2018-10-17T09:35:14.720Z,17.52
2018-10-17T09:36:15.030Z,17.54
2018-10-17T09:37:15.056Z,17.59
2018-10-17T09:38:14.822Z,17.6
2018-10-17T09:39:14.789Z,17.6
2018-10-17T09:40:15.469Z,17.63
2018-10-17T09:41:15.025Z,17.67
2018-10-17T09:42:14.962Z,17.7
2018-10-17T09:43:15.143Z,17.74
2018-10-17T09:44:14.785Z,17.85
2018-10-17T09:45:14.827Z,17.82
2018-10-17T09:46:15.555Z,17.92
2018-10-17T09:47:14.769Z,17.86
2018-10-17T09:48:14.973Z,17.98
2018-10-17T09:49:14.792Z,17.89
2018-10-17T09:50:14.863Z,18.04
2018-10-17T09:51:15.038Z,18.1
2018-10-17T09:52:15.225Z,18.2
2018-10-17T09:53:14.843Z,18.28
2018-10-17T09:54:15.008Z,18.37
2018-10-17T09:55:15.114Z,18.33
2018-10-17T09:56:14.532Z,18.38
2018-10-17T09:57:14.569Z,18.45
2018-10-17T09:58:15.082Z,18.47
2018-10-17T09:59:15.032Z,18.41
2018-10-17T10:00:15.409Z,18.62
2018-10-17T10:01:14.797Z,18.53
2018-10-17T10:02:15.338Z,18.6
2018-10-17T10:03:15.051Z,18.59
2018-10-17T10:04:15.445Z,18.73
2018-10-17T10:05:15.313Z,18.74
2018-10-17T10:06:15.428Z,18.77
2018-10-17T10:07:14.792Z,18.81
2018-10-17T10:08:15.064Z,18.86
2018-10-17T10:09:15.045Z,18.93
2018-10-17T10:10:15.401Z,18.96
2018-10-17T10:11:14.920Z,19.04
2018-10-17T10:12:15.193Z,19.07
2018-10-17T10:13:14.806Z,19.16
2018-10-17T10:14:14.796Z,19.14
2018-10-17T10:15:14.824Z,19.16
2018-10-17T10:16:15.041Z,19.26
2018-10-17T10:17:15.539Z,19.29
2018-10-17T10:18:15.038Z,19.31
2018-10-17T10:19:14.821Z,19.29
2018-10-17T10:20:15.119Z,19.34
2018-10-17T10:21:14.815Z,19.31
2018-10-17T10:22:15.552Z,19.31
2018-10-17T10:23:15.411Z,19.45
2018-10-17T10:24:14.974Z,19.49
2018-10-17T10:25:15.326Z,19.54
2018-10-17T10:26:15.158Z,19.54
2018-10-17T10:27:15.087Z,19.7
2018-10-17T10:28:15.571Z,19.74
2018-10-17T10:29:15.060Z,19.79
2018-10-17T10:30:15.115Z,19.82
2018-10-17T10:31:15.067Z,19.81
2018-10-17T10:32:15.047Z,19.85
2018-10-17T10:33:15.054Z,19.85
2018-10-17T10:34:15.519Z,19.79
2018-10-17T10:35:15.167Z,19.84
2018-10-17T10:36:15.529Z,19.92
2018-10-17T10:37:14.810Z,19.96
2018-10-17T10:38:14.814Z,19.92
2018-10-17T10:39:15.055Z,19.94
2018-10-17T10:40:15.357Z,20.09
2018-10-17T10:41:15.083Z,20.04
2018-10-17T10:42:14.776Z,20.06
2018-10-17T10:43:15.091Z,20.1
2018-10-17T10:44:15.687Z,20.16
2018-10-17T10:45:15.121Z,20.24
2018-10-17T10:46:14.862Z,20.25
2018-10-17T10:47:15.107Z,20.26
2018-10-17T10:48:15.116Z,20.26
2018-10-17T10:49:15.417Z,20.29
2018-10-17T10:50:15.264Z,20.32
2018-10-17T10:51:15.456Z,20.36
2018-10-17T10:52:15.088Z,20.37
2018-10-17T10:53:14.842Z,20.37
2018-10-17T10:54:15.132Z,20.34
2018-10-17T10:55:14.865Z,20.31
2018-10-17T10:56:15.066Z,20.29
2018-10-17T10:57:15.554Z,20.31
2018-10-17T10:58:15.077Z,20.4
2018-10-17T10:59:15.137Z,20.37
2018-10-17T11:00:15.451Z,20.37
2018-10-17T11:01:15.111Z,20.43
2018-10-17T11:02:15.060Z,20.52
2018-10-17T11:03:15.593Z,20.66
2018-10-17T11:04:15.109Z,20.67
2018-10-17T11:05:14.749Z,20.69
2018-10-17T11:06:15.119Z,20.7
2018-10-17T11:07:14.862Z,20.81
2018-10-17T11:08:15.137Z,20.87
2018-10-17T11:09:15.128Z,20.85
2018-10-17T11:10:14.868Z,20.87
2018-10-17T11:11:15.546Z,21
2018-10-17T11:12:15.186Z,20.97
2018-10-17T11:13:14.892Z,21.06
2018-10-17T11:14:15.499Z,21.12
2018-10-17T11:15:14.917Z,21.2
2018-10-17T11:16:14.873Z,21.18
2018-10-17T11:17:15.446Z,21.25
2018-10-17T11:18:15.151Z,21.25
2018-10-17T11:19:15.137Z,21.29
2018-10-17T11:20:14.905Z,21.27
2018-10-17T11:21:14.737Z,21.24
2018-10-17T11:22:15.153Z,21.36
2018-10-17T11:23:15.678Z,21.35
2018-10-17T11:24:14.909Z,21.35
2018-10-17T11:25:15.160Z,21.42
2018-10-17T11:26:14.909Z,21.39
2018-10-17T11:27:15.592Z,21.46
2018-10-17T11:28:14.915Z,21.54
2018-10-17T11:29:14.844Z,21.62
2018-10-17T11:30:15.290Z,21.51
2018-10-17T11:31:14.656Z,21.57
2018-10-17T11:32:14.915Z,21.54
2018-10-17T11:33:15.564Z,21.51
2018-10-17T11:34:14.958Z,21.48
2018-10-17T11:35:15.191Z,21.51
2018-10-17T11:36:14.927Z,21.52
2018-10-17T11:37:15.193Z,21.48
2018-10-17T11:38:14.924Z,21.48
2018-10-17T11:39:15.613Z,21.54
2018-10-17T11:40:15.584Z,21.62
2018-10-17T11:41:15.163Z,21.61
2018-10-17T11:42:14.926Z,21.58
2018-10-17T11:43:14.933Z,21.57
2018-10-17T11:44:14.940Z,21.58
2018-10-17T11:45:15.626Z,21.55
2018-10-17T11:46:14.686Z,21.6
2018-10-17T11:47:15.184Z,21.6
2018-10-17T11:48:14.938Z,21.57
2018-10-17T11:49:15.204Z,21.64
2018-10-17T11:50:14.970Z,21.69
2018-10-17T11:51:15.553Z,21.77
2018-10-17T11:52:14.957Z,21.8
2018-10-17T11:53:15.622Z,21.76
2018-10-17T11:54:14.698Z,21.72
2018-10-17T11:55:15.304Z,21.75
2018-10-17T11:56:14.969Z,21.79
2018-10-17T11:57:14.777Z,21.89
2018-10-17T11:58:15.790Z,21.96
2018-10-17T11:59:15.496Z,21.92
2018-10-17T12:00:15.287Z,21.93
2018-10-17T12:01:15.249Z,21.89
2018-10-17T12:02:14.982Z,21.89
2018-10-17T12:03:15.928Z,21.95
2018-10-17T12:04:16.794Z,21.96
2018-10-17T12:05:15.662Z,21.93
2018-10-17T12:06:15.072Z,22.08
2018-10-17T12:07:14.981Z,22.18
2018-10-17T12:08:14.996Z,22.18
2018-10-17T12:09:15.681Z,22.17
2018-10-17T12:10:15.284Z,22.26
2018-10-17T12:11:15.396Z,22.28
2018-10-17T12:12:15.504Z,22.35
2018-10-17T12:13:15.270Z,22.28
2018-10-17T12:14:15.017Z,22.35
2018-10-17T12:15:15.363Z,22.3
2018-10-17T12:16:15.020Z,22.38
2018-10-17T12:17:15.273Z,22.36
2018-10-17T12:18:15.665Z,22.47
2018-10-17T12:19:15.269Z,22.47
2018-10-17T12:20:15.344Z,22.45
2018-10-17T12:21:16.077Z,22.44
2018-10-17T12:22:14.776Z,22.55
2018-10-17T12:23:15.335Z,22.45
2018-10-17T12:24:15.591Z,22.5
2018-10-17T12:25:15.094Z,22.45
2018-10-17T12:26:15.039Z,22.5
2018-10-17T12:27:15.301Z,22.35
2018-10-17T12:28:14.913Z,22.45
2018-10-17T12:29:15.040Z,22.32
2018-10-17T12:30:15.331Z,22.44
2018-10-17T12:31:15.303Z,22.45
2018-10-17T12:32:15.048Z,22.35
2018-10-17T12:33:15.322Z,22.32
2018-10-17T12:34:14.794Z,22.32
2018-10-17T12:35:15.378Z,22.35
2018-10-17T12:36:15.320Z,22.33
2018-10-17T12:37:14.811Z,22.44
2018-10-17T12:38:15.056Z,22.36
2018-10-17T12:39:15.602Z,22.35
2018-10-17T12:40:15.968Z,22.3
2018-10-17T12:41:15.763Z,22.36
2018-10-17T12:42:15.321Z,22.43
2018-10-17T12:43:15.339Z,22.33
2018-10-17T12:44:14.920Z,22.33
2018-10-17T12:45:15.188Z,22.38
2018-10-17T12:46:15.110Z,22.35
2018-10-17T12:47:15.616Z,22.38
2018-10-17T12:48:15.352Z,22.45
2018-10-17T12:49:14.951Z,22.44
2018-10-17T12:50:15.296Z,22.53
2018-10-17T12:51:15.358Z,22.59
2018-10-17T12:52:16.003Z,22.59
2018-10-17T12:53:15.859Z,22.65
2018-10-17T12:54:15.126Z,22.6
2018-10-17T12:55:15.319Z,22.8